sensor_id;sensor_type;location;lat;lon;timestamp;P1;durP1;ratioP1;P2;durP2;ratioP2
49440;SDS011;35317;51.978;6.296;2023-05-28T00:02:25;7.10;;;3.03;;
49440;SDS011;35317;51.978;6.296;2023-05-28T00:07:26;8.50;;;3.13;;
49440;SDS011;35317;51.978;6.296;2023-05-28T00:17:31;6.70;;;3.10;;
49440;SDS011;35317;51.978;6.296;2023-05-28T00:22:32;5.95;;;3.40;;
49440;SDS011;35317;51.978;6.296;2023-05-28T00:27:33;10.52;;;3.55;;
49440;SDS011;35317;51.978;6.296;2023-05-28T00:32:34;8.02;;;3.67;;
49440;SDS011;35317;51.978;6.296;2023-05-28T00:37:35;7.05;;;3.55;;
49440;SDS011;35317;51.978;6.296;2023-05-28T00:42:36;6.93;;;3.22;;
49440;SDS011;35317;51.978;6.296;2023-05-28T00:47:37;5.63;;;3.08;;
49440;SDS011;35317;51.978;6.296;2023-05-28T00:52:41;7.45;;;3.35;;
49440;SDS011;35317;51.978;6.296;2023-05-28T00:57:44;9.00;;;3.45;;
49440;SDS011;35317;51.978;6.296;2023-05-28T01:02:48;7.03;;;3.20;;
49440;SDS011;35317;51.978;6.296;2023-05-28T01:07:49;6.70;;;3.45;;
49440;SDS011;35317;51.978;6.296;2023-05-28T01:12:50;8.77;;;4.00;;
49440;SDS011;35317;51.978;6.296;2023-05-28T01:17:55;9.95;;;3.92;;
49440;SDS011;35317;51.978;6.296;2023-05-28T01:22:59;6.53;;;3.45;;
49440;SDS011;35317;51.978;6.296;2023-05-28T01:28:13;6.97;;;3.95;;
49440;SDS011;35317;51.978;6.296;2023-05-28T01:33:14;11.18;;;4.05;;
49440;SDS011;35317;51.978;6.296;2023-05-28T01:38:15;8.85;;;3.90;;
49440;SDS011;35317;51.978;6.296;2023-05-28T01:43:18;7.38;;;4.32;;
49440;SDS011;35317;51.978;6.296;2023-05-28T01:48:20;11.50;;;4.72;;
49440;SDS011;35317;51.978;6.296;2023-05-28T01:53:22;9.02;;;4.32;;
49440;SDS011;35317;51.978;6.296;2023-05-28T01:58:23;11.18;;;4.25;;
49440;SDS011;35317;51.978;6.296;2023-05-28T02:03:24;10.30;;;4.47;;
49440;SDS011;35317;51.978;6.296;2023-05-28T02:08:25;8.38;;;4.03;;
49440;SDS011;35317;51.978;6.296;2023-05-28T02:13:25;14.32;;;4.88;;
49440;SDS011;35317;51.978;6.296;2023-05-28T02:18:27;10.65;;;4.50;;
49440;SDS011;35317;51.978;6.296;2023-05-28T02:23:28;15.50;;;5.07;;
49440;SDS011;35317;51.978;6.296;2023-05-28T02:28:29;12.40;;;4.60;;
49440;SDS011;35317;51.978;6.296;2023-05-28T02:33:30;16.88;;;5.53;;
49440;SDS011;35317;51.978;6.296;2023-05-28T02:38:32;12.10;;;5.03;;
49440;SDS011;35317;51.978;6.296;2023-05-28T02:43:33;13.13;;;5.28;;
49440;SDS011;35317;51.978;6.296;2023-05-28T02:48:34;14.45;;;5.18;;
49440;SDS011;35317;51.978;6.296;2023-05-28T02:53:35;12.18;;;5.40;;
49440;SDS011;35317;51.978;6.296;2023-05-28T02:58:36;11.70;;;5.70;;
49440;SDS011;35317;51.978;6.296;2023-05-28T03:03:37;11.15;;;4.78;;
49440;SDS011;35317;51.978;6.296;2023-05-28T03:08:37;12.68;;;5.32;;
49440;SDS011;35317;51.978;6.296;2023-05-28T03:13:38;13.73;;;5.70;;
49440;SDS011;35317;51.978;6.296;2023-05-28T03:18:39;13.02;;;5.40;;
49440;SDS011;35317;51.978;6.296;2023-05-28T03:23:40;12.18;;;5.38;;
49440;SDS011;35317;51.978;6.296;2023-05-28T03:28:40;12.75;;;6.13;;
49440;SDS011;35317;51.978;6.296;2023-05-28T03:33:41;12.68;;;6.22;;
49440;SDS011;35317;51.978;6.296;2023-05-28T03:38:42;11.00;;;5.15;;
49440;SDS011;35317;51.978;6.296;2023-05-28T03:43:43;13.57;;;5.85;;
49440;SDS011;35317;51.978;6.296;2023-05-28T03:48:43;14.18;;;5.43;;
49440;SDS011;35317;51.978;6.296;2023-05-28T03:53:45;9.90;;;5.00;;
49440;SDS011;35317;51.978;6.296;2023-05-28T03:58:46;14.02;;;6.00;;
49440;SDS011;35317;51.978;6.296;2023-05-28T04:03:46;15.70;;;6.13;;
49440;SDS011;35317;51.978;6.296;2023-05-28T04:08:47;16.50;;;5.97;;
49440;SDS011;35317;51.978;6.296;2023-05-28T04:13:48;17.08;;;6.32;;
49440;SDS011;35317;51.978;6.296;2023-05-28T04:18:49;14.52;;;5.68;;
49440;SDS011;35317;51.978;6.296;2023-05-28T04:23:50;14.85;;;6.10;;
49440;SDS011;35317;51.978;6.296;2023-05-28T04:28:51;16.95;;;6.20;;
49440;SDS011;35317;51.978;6.296;2023-05-28T04:33:53;14.35;;;6.50;;
49440;SDS011;35317;51.978;6.296;2023-05-28T04:38:53;12.20;;;5.80;;
49440;SDS011;35317;51.978;6.296;2023-05-28T04:43:57;14.50;;;5.75;;
49440;SDS011;35317;51.978;6.296;2023-05-28T04:48:58;15.77;;;6.13;;
49440;SDS011;35317;51.978;6.296;2023-05-28T04:53:59;18.33;;;6.13;;
49440;SDS011;35317;51.978;6.296;2023-05-28T04:59:00;10.75;;;5.80;;
49440;SDS011;35317;51.978;6.296;2023-05-28T05:04:07;13.52;;;5.70;;
49440;SDS011;35317;51.978;6.296;2023-05-28T05:09:08;19.08;;;6.30;;
49440;SDS011;35317;51.978;6.296;2023-05-28T05:14:09;15.02;;;6.68;;
49440;SDS011;35317;51.978;6.296;2023-05-28T05:19:10;14.95;;;6.32;;
49440;SDS011;35317;51.978;6.296;2023-05-28T05:24:11;13.57;;;5.63;;
49440;SDS011;35317;51.978;6.296;2023-05-28T05:29:12;17.92;;;6.07;;
49440;SDS011;35317;51.978;6.296;2023-05-28T05:34:12;14.75;;;5.45;;
49440;SDS011;35317;51.978;6.296;2023-05-28T05:39:13;9.05;;;5.15;;
49440;SDS011;35317;51.978;6.296;2023-05-28T05:44:15;11.95;;;5.28;;
49440;SDS011;35317;51.978;6.296;2023-05-28T05:49:15;17.13;;;5.60;;
49440;SDS011;35317;51.978;6.296;2023-05-28T05:54:17;10.95;;;5.53;;
49440;SDS011;35317;51.978;6.296;2023-05-28T05:59:18;14.38;;;6.18;;
49440;SDS011;35317;51.978;6.296;2023-05-28T06:04:18;15.48;;;6.32;;
49440;SDS011;35317;51.978;6.296;2023-05-28T06:09:19;13.65;;;5.40;;
49440;SDS011;35317;51.978;6.296;2023-05-28T06:14:20;14.73;;;6.43;;
49440;SDS011;35317;51.978;6.296;2023-05-28T06:19:21;16.83;;;6.28;;
49440;SDS011;35317;51.978;6.296;2023-05-28T06:24:23;13.40;;;5.55;;
49440;SDS011;35317;51.978;6.296;2023-05-28T06:29:23;12.07;;;5.65;;
49440;SDS011;35317;51.978;6.296;2023-05-28T06:34:24;13.15;;;5.65;;
49440;SDS011;35317;51.978;6.296;2023-05-28T06:39:27;12.15;;;5.38;;
49440;SDS011;35317;51.978;6.296;2023-05-28T06:44:28;13.05;;;5.50;;
49440;SDS011;35317;51.978;6.296;2023-05-28T06:49:28;11.50;;;5.43;;
49440;SDS011;35317;51.978;6.296;2023-05-28T06:54:30;9.60;;;4.85;;
49440;SDS011;35317;51.978;6.296;2023-05-28T06:59:31;11.13;;;5.43;;
49440;SDS011;35317;51.978;6.296;2023-05-28T07:04:32;14.48;;;5.80;;
49440;SDS011;35317;51.978;6.296;2023-05-28T07:09:32;12.48;;;5.13;;
49440;SDS011;35317;51.978;6.296;2023-05-28T07:14:34;12.00;;;5.68;;
49440;SDS011;35317;51.978;6.296;2023-05-28T07:19:36;14.55;;;5.40;;
49440;SDS011;35317;51.978;6.296;2023-05-28T07:24:37;13.40;;;5.20;;
49440;SDS011;35317;51.978;6.296;2023-05-28T07:29:39;14.25;;;5.75;;
49440;SDS011;35317;51.978;6.296;2023-05-28T07:34:40;10.98;;;5.57;;
49440;SDS011;35317;51.978;6.296;2023-05-28T07:39:41;11.30;;;5.65;;
49440;SDS011;35317;51.978;6.296;2023-05-28T07:44:42;13.23;;;5.57;;
49440;SDS011;35317;51.978;6.296;2023-05-28T07:49:43;12.63;;;5.22;;
49440;SDS011;35317;51.978;6.296;2023-05-28T07:54:44;15.55;;;5.15;;
49440;SDS011;35317;51.978;6.296;2023-05-28T07:59:45;13.02;;;5.20;;
49440;SDS011;35317;51.978;6.296;2023-05-28T08:04:48;14.38;;;5.38;;
49440;SDS011;35317;51.978;6.296;2023-05-28T08:09:49;10.65;;;5.85;;
49440;SDS011;35317;51.978;6.296;2023-05-28T08:14:50;11.02;;;5.20;;
49440;SDS011;35317;51.978;6.296;2023-05-28T08:19:51;10.18;;;4.63;;
49440;SDS011;35317;51.978;6.296;2023-05-28T08:24:52;11.68;;;4.22;;
49440;SDS011;35317;51.978;6.296;2023-05-28T08:29:53;7.68;;;3.97;;
49440;SDS011;35317;51.978;6.296;2023-05-28T08:34:54;16.50;;;4.63;;
49440;SDS011;35317;51.978;6.296;2023-05-28T08:39:54;9.30;;;4.15;;
49440;SDS011;35317;51.978;6.296;2023-05-28T08:44:55;8.15;;;3.50;;
49440;SDS011;35317;51.978;6.296;2023-05-28T08:49:56;10.38;;;3.50;;
49440;SDS011;35317;51.978;6.296;2023-05-28T08:55:04;5.68;;;3.03;;
49440;SDS011;35317;51.978;6.296;2023-05-28T09:00:05;7.35;;;2.95;;
49440;SDS011;35317;51.978;6.296;2023-05-28T09:05:09;6.53;;;2.90;;
49440;SDS011;35317;51.978;6.296;2023-05-28T09:10:13;9.85;;;3.50;;
49440;SDS011;35317;51.978;6.296;2023-05-28T09:15:15;10.30;;;3.63;;
49440;SDS011;35317;51.978;6.296;2023-05-28T09:20:21;8.15;;;3.47;;
49440;SDS011;35317;51.978;6.296;2023-05-28T09:25:22;8.27;;;3.50;;
49440;SDS011;35317;51.978;6.296;2023-05-28T09:30:24;7.95;;;3.38;;
49440;SDS011;35317;51.978;6.296;2023-05-28T09:35:25;10.48;;;3.58;;
49440;SDS011;35317;51.978;6.296;2023-05-28T09:40:26;9.07;;;3.55;;
49440;SDS011;35317;51.978;6.296;2023-05-28T09:45:27;7.43;;;2.70;;
49440;SDS011;35317;51.978;6.296;2023-05-28T09:50:28;7.55;;;2.85;;
49440;SDS011;35317;51.978;6.296;2023-05-28T09:55:29;4.22;;;2.30;;
49440;SDS011;35317;51.978;6.296;2023-05-28T10:00:34;4.35;;;2.30;;
49440;SDS011;35317;51.978;6.296;2023-05-28T10:05:41;4.47;;;2.38;;
49440;SDS011;35317;51.978;6.296;2023-05-28T10:10:46;7.97;;;2.70;;
49440;SDS011;35317;51.978;6.296;2023-05-28T10:15:52;8.00;;;2.85;;
49440;SDS011;35317;51.978;6.296;2023-05-28T10:20:54;6.38;;;2.45;;
49440;SDS011;35317;51.978;6.296;2023-05-28T10:25:56;8.32;;;2.60;;
49440;SDS011;35317;51.978;6.296;2023-05-28T10:31:07;4.47;;;2.42;;
49440;SDS011;35317;51.978;6.296;2023-05-28T10:36:10;7.50;;;3.10;;
49440;SDS011;35317;51.978;6.296;2023-05-28T10:41:21;8.63;;;3.00;;
49440;SDS011;35317;51.978;6.296;2023-05-28T10:51:42;11.32;;;3.67;;
49440;SDS011;35317;51.978;6.296;2023-05-28T10:57:16;7.95;;;3.60;;
49440;SDS011;35317;51.978;6.296;2023-05-28T11:02:23;9.85;;;3.50;;
49440;SDS011;35317;51.978;6.296;2023-05-28T11:07:43;10.65;;;3.75;;
49440;SDS011;35317;51.978;6.296;2023-05-28T11:12:44;6.47;;;2.75;;
49440;SDS011;35317;51.978;6.296;2023-05-28T11:17:45;6.95;;;2.72;;
49440;SDS011;35317;51.978;6.296;2023-05-28T11:22:47;7.20;;;2.80;;
49440;SDS011;35317;51.978;6.296;2023-05-28T11:27:49;6.50;;;2.90;;
49440;SDS011;35317;51.978;6.296;2023-05-28T11:32:50;6.72;;;2.78;;
49440;SDS011;35317;51.978;6.296;2023-05-28T11:37:51;5.80;;;2.63;;
49440;SDS011;35317;51.978;6.296;2023-05-28T11:42:57;5.60;;;2.70;;
49440;SDS011;35317;51.978;6.296;2023-05-28T11:47:59;5.38;;;2.55;;
49440;SDS011;35317;51.978;6.296;2023-05-28T11:52:59;7.80;;;2.75;;
49440;SDS011;35317;51.978;6.296;2023-05-28T11:58:00;9.02;;;3.25;;
49440;SDS011;35317;51.978;6.296;2023-05-28T12:03:01;7.10;;;2.85;;
49440;SDS011;35317;51.978;6.296;2023-05-28T12:08:02;9.50;;;2.72;;
49440;SDS011;35317;51.978;6.296;2023-05-28T12:13:05;6.53;;;2.58;;
49440;SDS011;35317;51.978;6.296;2023-05-28T12:18:05;5.65;;;2.13;;
49440;SDS011;35317;51.978;6.296;2023-05-28T12:23:07;8.25;;;2.42;;
49440;SDS011;35317;51.978;6.296;2023-05-28T12:28:13;7.00;;;2.05;;
49440;SDS011;35317;51.978;6.296;2023-05-28T12:33:16;4.22;;;2.05;;
49440;SDS011;35317;51.978;6.296;2023-05-28T12:38:17;6.28;;;2.28;;
49440;SDS011;35317;51.978;6.296;2023-05-28T12:43:19;5.38;;;2.08;;
49440;SDS011;35317;51.978;6.296;2023-05-28T12:48:21;5.43;;;2.38;;
49440;SDS011;35317;51.978;6.296;2023-05-28T12:53:22;8.77;;;2.90;;
49440;SDS011;35317;51.978;6.296;2023-05-28T12:58:23;4.68;;;2.17;;
49440;SDS011;35317;51.978;6.296;2023-05-28T13:03:24;5.40;;;2.33;;
49440;SDS011;35317;51.978;6.296;2023-05-28T13:08:25;4.97;;;2.08;;
49440;SDS011;35317;51.978;6.296;2023-05-28T13:13:25;5.88;;;2.25;;
49440;SDS011;35317;51.978;6.296;2023-05-28T13:18:26;4.57;;;2.00;;
49440;SDS011;35317;51.978;6.296;2023-05-28T13:23:27;4.05;;;1.95;;
49440;SDS011;35317;51.978;6.296;2023-05-28T13:28:28;6.07;;;2.45;;
49440;SDS011;35317;51.978;6.296;2023-05-28T13:33:28;4.72;;;2.10;;
49440;SDS011;35317;51.978;6.296;2023-05-28T13:38:30;5.50;;;2.40;;
49440;SDS011;35317;51.978;6.296;2023-05-28T13:43:30;5.13;;;1.90;;
49440;SDS011;35317;51.978;6.296;2023-05-28T13:48:31;3.20;;;1.75;;
49440;SDS011;35317;51.978;6.296;2023-05-28T13:53:33;5.57;;;2.10;;
49440;SDS011;35317;51.978;6.296;2023-05-28T13:58:35;7.32;;;2.90;;
49440;SDS011;35317;51.978;6.296;2023-05-28T14:03:36;4.97;;;2.17;;
49440;SDS011;35317;51.978;6.296;2023-05-28T14:08:37;5.18;;;2.83;;
49440;SDS011;35317;51.978;6.296;2023-05-28T14:13:38;5.13;;;2.75;;
49440;SDS011;35317;51.978;6.296;2023-05-28T14:18:38;5.30;;;2.50;;
49440;SDS011;35317;51.978;6.296;2023-05-28T14:23:39;7.35;;;2.83;;
49440;SDS011;35317;51.978;6.296;2023-05-28T14:28:40;5.50;;;2.47;;
49440;SDS011;35317;51.978;6.296;2023-05-28T14:33:41;4.82;;;2.33;;
49440;SDS011;35317;51.978;6.296;2023-05-28T14:38:42;6.20;;;2.55;;
49440;SDS011;35317;51.978;6.296;2023-05-28T14:43:43;7.63;;;2.22;;
49440;SDS011;35317;51.978;6.296;2023-05-28T14:48:45;5.87;;;2.30;;
49440;SDS011;35317;51.978;6.296;2023-05-28T14:53:45;10.27;;;2.90;;
49440;SDS011;35317;51.978;6.296;2023-05-28T14:58:46;6.30;;;2.72;;
49440;SDS011;35317;51.978;6.296;2023-05-28T15:03:47;6.05;;;2.88;;
49440;SDS011;35317;51.978;6.296;2023-05-28T15:08:48;6.13;;;2.75;;
49440;SDS011;35317;51.978;6.296;2023-05-28T15:13:49;6.18;;;2.97;;
49440;SDS011;35317;51.978;6.296;2023-05-28T15:18:50;8.45;;;2.60;;
49440;SDS011;35317;51.978;6.296;2023-05-28T15:23:51;5.13;;;3.00;;
49440;SDS011;35317;51.978;6.296;2023-05-28T15:28:52;6.15;;;3.22;;
49440;SDS011;35317;51.978;6.296;2023-05-28T15:33:53;4.53;;;2.40;;
49440;SDS011;35317;51.978;6.296;2023-05-28T15:38:54;8.00;;;3.30;;
49440;SDS011;35317;51.978;6.296;2023-05-28T15:43:55;6.88;;;2.97;;
49440;SDS011;35317;51.978;6.296;2023-05-28T15:48:57;4.75;;;2.88;;
49440;SDS011;35317;51.978;6.296;2023-05-28T15:53:58;8.20;;;4.13;;
49440;SDS011;35317;51.978;6.296;2023-05-28T15:58:59;4.95;;;2.80;;
49440;SDS011;35317;51.978;6.296;2023-05-28T16:04:00;4.78;;;2.92;;
49440;SDS011;35317;51.978;6.296;2023-05-28T16:09:01;5.43;;;2.78;;
49440;SDS011;35317;51.978;6.296;2023-05-28T16:14:04;5.82;;;3.05;;
49440;SDS011;35317;51.978;6.296;2023-05-28T16:19:06;7.40;;;2.95;;
49440;SDS011;35317;51.978;6.296;2023-05-28T16:24:07;9.32;;;3.03;;
49440;SDS011;35317;51.978;6.296;2023-05-28T16:29:08;4.43;;;2.90;;
49440;SDS011;35317;51.978;6.296;2023-05-28T16:34:09;5.68;;;2.70;;
49440;SDS011;35317;51.978;6.296;2023-05-28T16:39:10;5.97;;;3.15;;
49440;SDS011;35317;51.978;6.296;2023-05-28T16:44:11;6.03;;;3.25;;
49440;SDS011;35317;51.978;6.296;2023-05-28T16:49:12;6.93;;;3.13;;
49440;SDS011;35317;51.978;6.296;2023-05-28T16:54:13;5.50;;;2.90;;
49440;SDS011;35317;51.978;6.296;2023-05-28T16:59:16;7.72;;;4.32;;
49440;SDS011;35317;51.978;6.296;2023-05-28T17:04:17;5.35;;;2.97;;
49440;SDS011;35317;51.978;6.296;2023-05-28T17:09:18;4.63;;;2.88;;
49440;SDS011;35317;51.978;6.296;2023-05-28T17:14:19;5.18;;;2.78;;
49440;SDS011;35317;51.978;6.296;2023-05-28T17:19:20;4.72;;;2.53;;
49440;SDS011;35317;51.978;6.296;2023-05-28T17:24:21;5.55;;;2.70;;
49440;SDS011;35317;51.978;6.296;2023-05-28T17:29:23;4.63;;;2.35;;
49440;SDS011;35317;51.978;6.296;2023-05-28T17:34:23;5.32;;;2.45;;
49440;SDS011;35317;51.978;6.296;2023-05-28T17:39:24;4.40;;;2.05;;
49440;SDS011;35317;51.978;6.296;2023-05-28T17:44:25;7.40;;;2.20;;
49440;SDS011;35317;51.978;6.296;2023-05-28T17:49:26;5.38;;;1.90;;
49440;SDS011;35317;51.978;6.296;2023-05-28T17:54:27;6.15;;;1.60;;
49440;SDS011;35317;51.978;6.296;2023-05-28T17:59:28;4.75;;;1.98;;
49440;SDS011;35317;51.978;6.296;2023-05-28T18:04:28;3.42;;;1.77;;
49440;SDS011;35317;51.978;6.296;2023-05-28T18:09:29;5.93;;;2.15;;
49440;SDS011;35317;51.978;6.296;2023-05-28T18:14:30;5.43;;;1.98;;
49440;SDS011;35317;51.978;6.296;2023-05-28T18:19:31;5.22;;;2.20;;
49440;SDS011;35317;51.978;6.296;2023-05-28T18:24:31;4.00;;;2.00;;
49440;SDS011;35317;51.978;6.296;2023-05-28T18:29:32;5.80;;;2.15;;
49440;SDS011;35317;51.978;6.296;2023-05-28T18:34:33;6.13;;;1.85;;
49440;SDS011;35317;51.978;6.296;2023-05-28T18:39:34;5.78;;;1.88;;
49440;SDS011;35317;51.978;6.296;2023-05-28T18:44:35;7.13;;;2.35;;
49440;SDS011;35317;51.978;6.296;2023-05-28T18:54:39;6.18;;;2.50;;
49440;SDS011;35317;51.978;6.296;2023-05-28T18:59:41;8.52;;;2.50;;
49440;SDS011;35317;51.978;6.296;2023-05-28T19:04:41;7.32;;;1.95;;
49440;SDS011;35317;51.978;6.296;2023-05-28T19:09:42;7.40;;;2.20;;
49440;SDS011;35317;51.978;6.296;2023-05-28T19:14:43;6.00;;;2.20;;
49440;SDS011;35317;51.978;6.296;2023-05-28T19:19:44;4.05;;;2.10;;
49440;SDS011;35317;51.978;6.296;2023-05-28T19:24:46;9.90;;;2.72;;
49440;SDS011;35317;51.978;6.296;2023-05-28T19:29:48;5.75;;;2.50;;
49440;SDS011;35317;51.978;6.296;2023-05-28T19:34:49;4.95;;;2.15;;
49440;SDS011;35317;51.978;6.296;2023-05-28T19:39:50;4.85;;;2.63;;
49440;SDS011;35317;51.978;6.296;2023-05-28T19:44:51;7.80;;;2.80;;
49440;SDS011;35317;51.978;6.296;2023-05-28T19:49:51;5.30;;;2.72;;
49440;SDS011;35317;51.978;6.296;2023-05-28T19:54:52;9.13;;;3.17;;
49440;SDS011;35317;51.978;6.296;2023-05-28T19:59:53;9.15;;;3.22;;
49440;SDS011;35317;51.978;6.296;2023-05-28T20:04:57;5.60;;;2.65;;
49440;SDS011;35317;51.978;6.296;2023-05-28T20:09:59;7.68;;;3.10;;
49440;SDS011;35317;51.978;6.296;2023-05-28T20:15:00;8.23;;;3.13;;
49440;SDS011;35317;51.978;6.296;2023-05-28T20:20:01;3.33;;;2.55;;
49440;SDS011;35317;51.978;6.296;2023-05-28T20:25:03;6.47;;;2.92;;
49440;SDS011;35317;51.978;6.296;2023-05-28T20:30:05;5.55;;;2.97;;
49440;SDS011;35317;51.978;6.296;2023-05-28T20:35:07;7.38;;;3.10;;
49440;SDS011;35317;51.978;6.296;2023-05-28T20:40:10;6.88;;;3.08;;
49440;SDS011;35317;51.978;6.296;2023-05-28T20:45:13;9.40;;;3.15;;
49440;SDS011;35317;51.978;6.296;2023-05-28T20:50:17;7.80;;;3.00;;
49440;SDS011;35317;51.978;6.296;2023-05-28T20:55:18;7.00;;;3.15;;
49440;SDS011;35317;51.978;6.296;2023-05-28T21:00:19;5.50;;;3.17;;
49440;SDS011;35317;51.978;6.296;2023-05-28T21:05:26;8.90;;;3.65;;
49440;SDS011;35317;51.978;6.296;2023-05-28T21:10:26;6.47;;;3.65;;
49440;SDS011;35317;51.978;6.296;2023-05-28T21:15:27;5.85;;;3.50;;
49440;SDS011;35317;51.978;6.296;2023-05-28T21:20:28;7.10;;;3.65;;
49440;SDS011;35317;51.978;6.296;2023-05-28T21:25:29;6.40;;;3.50;;
49440;SDS011;35317;51.978;6.296;2023-05-28T21:30:30;10.02;;;3.80;;
49440;SDS011;35317;51.978;6.296;2023-05-28T21:35:31;10.85;;;3.60;;
49440;SDS011;35317;51.978;6.296;2023-05-28T21:40:31;9.20;;;3.80;;
49440;SDS011;35317;51.978;6.296;2023-05-28T21:45:32;6.55;;;3.42;;
49440;SDS011;35317;51.978;6.296;2023-05-28T21:50:33;6.93;;;3.28;;
49440;SDS011;35317;51.978;6.296;2023-05-28T21:55:34;7.85;;;3.15;;
49440;SDS011;35317;51.978;6.296;2023-05-28T22:00:36;11.10;;;3.63;;
49440;SDS011;35317;51.978;6.296;2023-05-28T22:05:37;6.20;;;3.30;;
49440;SDS011;35317;51.978;6.296;2023-05-28T22:10:38;5.63;;;2.90;;
49440;SDS011;35317;51.978;6.296;2023-05-28T22:15:39;6.38;;;3.25;;
49440;SDS011;35317;51.978;6.296;2023-05-28T22:20:40;6.95;;;3.58;;
49440;SDS011;35317;51.978;6.296;2023-05-28T22:25:41;11.35;;;3.65;;
49440;SDS011;35317;51.978;6.296;2023-05-28T22:30:42;10.32;;;3.85;;
49440;SDS011;35317;51.978;6.296;2023-05-28T22:35:43;9.48;;;3.38;;
49440;SDS011;35317;51.978;6.296;2023-05-28T22:40:44;8.93;;;3.30;;
49440;SDS011;35317;51.978;6.296;2023-05-28T22:45:45;9.80;;;3.60;;
49440;SDS011;35317;51.978;6.296;2023-05-28T22:50:48;6.43;;;2.88;;
49440;SDS011;35317;51.978;6.296;2023-05-28T22:55:50;5.95;;;3.05;;
49440;SDS011;35317;51.978;6.296;2023-05-28T23:00:54;8.45;;;2.85;;
49440;SDS011;35317;51.978;6.296;2023-05-28T23:05:56;8.30;;;2.70;;
49440;SDS011;35317;51.978;6.296;2023-05-28T23:10:56;8.52;;;2.58;;
49440;SDS011;35317;51.978;6.296;2023-05-28T23:15:57;8.75;;;2.45;;
49440;SDS011;35317;51.978;6.296;2023-05-28T23:20:59;6.65;;;2.08;;
49440;SDS011;35317;51.978;6.296;2023-05-28T23:25:59;9.82;;;2.83;;
49440;SDS011;35317;51.978;6.296;2023-05-28T23:31:00;6.43;;;2.08;;
49440;SDS011;35317;51.978;6.296;2023-05-28T23:36:01;6.25;;;1.77;;
49440;SDS011;35317;51.978;6.296;2023-05-28T23:41:02;7.10;;;2.45;;
49440;SDS011;35317;51.978;6.296;2023-05-28T23:46:03;11.73;;;3.20;;
49440;SDS011;35317;51.978;6.296;2023-05-28T23:51:05;8.55;;;2.70;;
49440;SDS011;35317;51.978;6.296;2023-05-28T23:56:06;7.93;;;1.88;;
